Time;durP1;ratioP1;P1;durP2;ratioP2;P2;SDS_P1;SDS_P2;PMS_P1;PMS_P2;Temp;Humidity;BMP_temperature;BMP_pressure;BME280_temperature;BME280_humidity;BME280_pressure;Samples;Min_cycle;Max_cycle;Signal;HPM_P1;HPM_P2
2024/02/11 00:01:53;;;;;;;54.70;29.10;;;;;;;6.73;100.00;98770.35;106324;1266;97866;-80
2024/02/11 00:04:41;;;;;;;51.80;30.40;;;;;;;6.71;100.00;98767.48;106370;1264;101525;-82
2024/02/11 00:07:26;;;;;;;61.70;32.60;;;;;;;6.71;100.00;98768.35;106592;1262;99315;-82
2024/02/11 00:10:14;;;;;;;60.60;34.30;;;;;;;6.72;100.00;98769.13;106309;1264;97924;-81
2024/02/11 00:13:01;;;;;;;59.10;33.00;;;;;;;6.72;100.00;98762.61;106371;1266;97956;-81
2024/02/11 00:15:47;;;;;;;59.20;32.20;;;;;;;6.71;100.00;98761.67;106270;1262;97974;-81
2024/02/11 00:18:32;;;;;;;60.90;32.20;;;;;;;6.72;100.00;98766.67;106406;1265;101333;-82
2024/02/11 00:21:17;;;;;;;53.90;31.00;;;;;;;6.72;100.00;98764.02;106324;1262;99121;-82
2024/02/11 00:24:03;;;;;;;56.70;30.90;;;;;;;6.70;100.00;98760.16;106245;1262;97959;-82
2024/02/11 00:26:49;;;;;;;58.30;33.30;;;;;;;6.69;100.00;98761.35;106604;1262;97985;-82
2024/02/11 00:29:35;;;;;;;65.00;34.90;;;;;;;6.69;100.00;98766.89;106228;1269;98464;-82
2024/02/11 00:32:20;;;;;;;56.30;30.60;;;;;;;6.69;100.00;98767.24;106289;1264;102638;-81
2024/02/11 00:35:07;;;;;;;54.80;32.20;;;;;;;6.70;100.00;98772.11;106254;1264;99106;-81
2024/02/11 00:37:53;;;;;;;62.50;31.70;;;;;;;6.69;100.00;98775.87;106332;1267;99051;-81
2024/02/11 00:40:38;;;;;;;59.40;31.00;;;;;;;6.68;100.00;98779.45;106081;1262;97967;-82
2024/02/11 00:43:23;;;;;;;59.00;31.10;;;;;;;6.66;100.00;98778.59;106232;1264;97885;-81
2024/02/11 00:46:09;;;;;;;57.20;30.90;;;;;;;6.67;100.00;98782.44;106459;1264;102640;-81
2024/02/11 00:48:54;;;;;;;63.50;31.80;;;;;;;6.67;100.00;98785.79;106255;1267;99558;-82
2024/02/11 00:51:40;;;;;;;57.30;31.60;;;;;;;6.63;100.00;98777.73;106242;1262;99174;-81
2024/02/11 00:54:25;;;;;;;58.20;32.10;;;;;;;6.63;100.00;98768.97;106228;1262;97959;-82
2024/02/11 00:57:11;;;;;;;61.10;31.50;;;;;;;6.63;100.00;98765.20;106353;1263;97775;-81
2024/02/11 00:59:58;;;;;;;59.90;31.40;;;;;;;6.62;100.00;98765.58;106238;1266;102081;-81
2024/02/11 01:02:44;;;;;;;55.00;31.20;;;;;;;6.60;100.00;98765.58;106313;1264;99904;-82
2024/02/11 01:05:29;;;;;;;54.50;30.10;;;;;;;6.60;100.00;98766.52;106471;1262;97877;-81
2024/02/11 01:08:15;;;;;;;65.00;30.90;;;;;;;6.59;100.00;98763.27;106191;1262;98797;-82
2024/02/11 01:11:01;;;;;;;58.30;31.00;;;;;;;6.55;100.00;98759.20;106390;1262;96357;-81
2024/02/11 01:13:47;;;;;;;70.20;33.50;;;;;;;6.52;100.00;98763.05;106361;1262;101398;-81
2024/02/11 01:16:32;;;;;;;64.60;33.80;;;;;;;6.51;100.00;98762.95;106235;1270;99193;-80
2024/02/11 01:19:18;;;;;;;56.50;31.40;;;;;;;6.50;100.00;98757.06;106242;1262;98611;-81
2024/02/11 01:22:04;;;;;;;61.60;34.20;;;;;;;6.48;100.00;98750.33;106223;1262;98049;-82
2024/02/11 01:24:50;;;;;;;62.50;31.80;;;;;;;6.46;100.00;98753.76;106230;1261;98422;-82
2024/02/11 01:27:37;;;;;;;62.60;32.30;;;;;;;6.45;100.00;98752.73;106271;1262;101429;-81
2024/02/11 01:30:24;;;;;;;55.80;30.30;;;;;;;6.46;100.00;98754.08;106403;1261;99430;-81
2024/02/11 01:33:09;;;;;;;60.80;31.80;;;;;;;6.44;100.00;98746.39;106376;1266;97892;-81
2024/02/11 01:35:55;;;;;;;54.90;29.90;;;;;;;6.40;100.00;98742.92;106406;1262;97935;-81
2024/02/11 01:38:40;;;;;;;70.90;32.00;;;;;;;6.40;100.00;98742.58;106367;1264;98502;-81
2024/02/11 01:41:26;;;;;;;59.30;30.10;;;;;;;6.40;100.00;98739.39;106321;1264;101466;-82
2024/02/11 01:44:15;;;;;;;63.50;31.40;;;;;;;6.40;100.00;98732.40;106202;1262;99222;-81
2024/02/11 01:47:03;;;;;;;61.30;33.70;;;;;;;6.36;100.00;98730.92;106220;1267;99073;-81
2024/02/11 01:49:50;;;;;;;65.00;34.20;;;;;;;6.34;100.00;98735.46;106382;1263;97883;-81
2024/02/11 01:52:36;;;;;;;62.90;31.00;;;;;;;6.34;100.00;98738.85;106334;1264;97969;-82
2024/02/11 01:55:23;;;;;;;63.40;31.00;;;;;;;6.35;100.00;98742.83;106355;1262;101494;-81
2024/02/11 01:58:15;;;;;;;73.80;36.80;;;;;;;6.36;100.00;98741.44;106073;1262;100360;-81
2024/02/11 02:01:01;;;;;;;65.50;31.30;;;;;;;6.35;100.00;98734.52;106186;1264;97997;-82
2024/02/11 02:03:47;;;;;;;63.80;32.30;;;;;;;6.33;100.00;98728.15;106128;1262;98480;-81
2024/02/11 02:06:33;;;;;;;69.00;33.10;;;;;;;6.33;100.00;98729.25;106272;1262;98478;-82
2024/02/11 02:09:19;;;;;;;66.10;31.10;;;;;;;6.33;100.00;98730.04;106279;1262;101414;-82
2024/02/11 02:12:06;;;;;;;67.20;35.00;;;;;;;6.31;100.00;98738.62;106273;1262;99154;-82
2024/02/11 02:14:52;;;;;;;64.50;32.30;;;;;;;6.30;100.00;98746.89;106572;1262;98762;-81
2024/02/11 02:17:38;;;;;;;68.20;31.80;;;;;;;6.29;100.00;98745.90;106326;1262;97962;-81
2024/02/11 02:20:24;;;;;;;56.50;28.60;;;;;;;6.29;100.00;98748.02;106099;1262;98848;-81
2024/02/11 02:23:10;;;;;;;66.90;32.90;;;;;;;6.26;100.00;98742.96;106441;1266;103231;-81
2024/02/11 02:25:57;;;;;;;66.80;32.30;;;;;;;6.26;100.00;98745.61;106136;1262;99196;-80
2024/02/11 02:28:42;;;;;;;63.30;32.90;;;;;;;6.27;100.00;98752.23;106254;1267;99065;-79
2024/02/11 02:31:27;;;;;;;77.80;33.50;;;;;;;6.26;100.00;98747.58;106244;1267;98870;-82
2024/02/11 02:34:13;;;;;;;59.10;30.30;;;;;;;6.24;100.00;98754.89;106254;1266;98497;-81
2024/02/11 02:36:59;;;;;;;63.70;31.10;;;;;;;6.22;100.00;98751.91;106194;1262;101357;-82
2024/02/11 02:39:45;;;;;;;71.10;32.80;;;;;;;6.20;100.00;98745.11;106181;1262;99198;-82
2024/02/11 02:42:30;;;;;;;56.70;29.70;;;;;;;6.20;100.00;98743.77;106075;1266;98558;-82
2024/02/11 02:45:16;;;;;;;62.30;30.70;;;;;;;6.20;100.00;98738.22;106232;1260;98024;-82
2024/02/11 02:48:02;;;;;;;61.30;29.70;;;;;;;6.20;100.00;98735.77;106024;1267;96007;-81
2024/02/11 02:50:48;;;;;;;52.30;27.00;;;;;;;6.20;100.00;98732.61;106243;1265;102176;-83
2024/02/11 02:53:33;;;;;;;62.30;31.50;;;;;;;6.17;100.00;98726.91;106630;1262;100568;-83
2024/02/11 02:56:19;;;;;;;64.00;31.50;;;;;;;6.16;100.00;98730.44;106217;1262;98628;-82
2024/02/11 02:59:08;;;;;;;57.50;29.30;;;;;;;6.13;100.00;98725.81;106248;1260;98023;-83
2024/02/11 03:02:01;;;;;;;52.50;27.70;;;;;;;6.14;100.00;98727.53;106929;1262;97780;-81
2024/02/11 03:04:47;;;;;;;62.70;31.20;;;;;;;6.13;100.00;98732.02;106276;1266;101438;-83
2024/02/11 03:07:33;;;;;;;57.70;30.50;;;;;;;6.13;100.00;98732.56;106105;1267;99157;-82
2024/02/11 03:10:20;;;;;;;66.00;31.50;;;;;;;6.13;100.00;98735.34;106300;1264;99594;-82
2024/02/11 03:13:06;;;;;;;69.60;35.10;;;;;;;6.12;100.00;98733.05;106379;1262;98016;-82
2024/02/11 03:15:51;;;;;;;62.30;30.30;;;;;;;6.11;100.00;98730.02;106263;1262;99252;-82
2024/02/11 03:18:40;;;;;;;60.30;29.90;;;;;;;6.10;100.00;98733.58;106257;1262;101397;-83
2024/02/11 03:21:26;;;;;;;54.90;28.60;;;;;;;6.10;100.00;98738.73;106222;1264;100468;-84
2024/02/11 03:24:11;;;;;;;54.40;28.00;;;;;;;6.10;100.00;98737.66;106381;1262;97985;-82
2024/02/11 03:26:57;;;;;;;52.10;27.70;;;;;;;6.10;100.00;98732.52;106181;1268;98099;-82
2024/02/11 03:29:42;;;;;;;53.20;26.40;;;;;;;6.10;100.00;98727.56;106223;1262;98419;-82
2024/02/11 03:32:28;;;;;;;54.80;27.40;;;;;;;6.09;100.00;98724.06;106221;1262;101412;-83
2024/02/11 03:35:15;;;;;;;55.90;28.70;;;;;;;6.09;100.00;98725.15;106250;1267;100616;-81
2024/02/11 03:38:01;;;;;;;59.80;28.40;;;;;;;6.09;100.00;98724.34;106240;1262;99048;-82
2024/02/11 03:40:47;;;;;;;56.60;28.30;;;;;;;6.10;100.00;98724.74;106469;1262;95971;-82
2024/02/11 03:43:33;;;;;;;52.40;28.30;;;;;;;6.10;100.00;98720.62;106219;1266;97962;-82
2024/02/11 03:46:22;;;;;;;56.20;29.00;;;;;;;6.09;100.00;98721.98;106179;1267;101513;-82
2024/02/11 03:49:08;;;;;;;55.40;28.70;;;;;;;6.11;100.00;98725.65;106249;1262;99142;-82
2024/02/11 03:51:56;;;;;;;54.70;27.30;;;;;;;6.09;100.00;98727.04;106229;1262;98589;-81
2024/02/11 03:54:41;;;;;;;56.20;27.70;;;;;;;6.08;100.00;98728.71;106542;1262;97940;-82
2024/02/11 03:57:27;;;;;;;58.30;29.10;;;;;;;6.07;100.00;98728.18;106436;1262;97880;-81
2024/02/11 04:03:00;;;;;;;63.50;31.10;;;;;;;6.05;100.00;98731.94;106426;1266;99131;-81
2024/02/11 04:05:48;;;;;;;57.00;29.50;;;;;;;6.04;100.00;98729.77;106257;1262;97876;-81
2024/02/11 04:08:37;;;;;;;58.50;31.10;;;;;;;6.03;100.00;98734.60;106393;1263;98768;-82
2024/02/11 04:11:27;;;;;;;62.70;32.50;;;;;;;6.02;100.00;98730.52;106095;1269;98822;-82
2024/02/11 04:14:15;;;;;;;66.30;33.40;;;;;;;6.03;100.00;98729.03;106237;1262;101587;-81
2024/02/11 04:17:02;;;;;;;67.50;34.50;;;;;;;6.03;100.00;98730.75;106200;1266;99127;-82
2024/02/11 04:19:48;;;;;;;69.40;35.40;;;;;;;6.05;100.00;98731.17;106386;1262;98025;-82
2024/02/11 04:22:34;;;;;;;68.10;36.30;;;;;;;6.06;100.00;98730.76;106185;1267;98067;-82
2024/02/11 04:25:22;;;;;;;63.30;32.80;;;;;;;6.07;100.00;98733.12;106376;1262;99566;-80
2024/02/11 04:28:07;;;;;;;62.40;33.00;;;;;;;6.07;100.00;98735.20;106288;1262;101423;-82
2024/02/11 04:30:53;;;;;;;51.50;29.60;;;;;;;6.06;100.00;98734.08;106363;1266;99152;-82
2024/02/11 04:33:39;;;;;;;57.50;30.90;;;;;;;6.06;100.00;98731.52;106546;1262;97894;-81
2024/02/11 04:36:25;;;;;;;61.10;31.70;;;;;;;6.07;100.00;98732.23;106225;1264;98027;-82
2024/02/11 04:39:10;;;;;;;55.60;29.30;;;;;;;6.08;100.00;98729.21;106089;1262;97974;-81
2024/02/11 04:41:57;;;;;;;55.70;30.40;;;;;;;6.08;100.00;98724.94;106309;1262;101399;-81
2024/02/11 04:44:43;;;;;;;58.00;31.40;;;;;;;6.08;100.00;98724.94;106346;1266;99157;-81
2024/02/11 04:47:28;;;;;;;57.20;31.50;;;;;;;6.07;100.00;98720.69;106154;1266;97977;-82
2024/02/11 04:50:16;;;;;;;56.60;29.50;;;;;;;6.07;100.00;98721.14;106335;1264;98055;-81
2024/02/11 04:53:02;;;;;;;52.50;27.90;;;;;;;6.07;100.00;98717.80;106277;1262;98421;-81
2024/02/11 04:55:50;;;;;;;49.60;30.20;;;;;;;6.07;100.00;98714.08;106268;1264;102807;-82
2024/02/11 04:58:36;;;;;;;52.00;29.00;;;;;;;6.07;100.00;98711.45;106411;1262;99089;-81
2024/02/11 05:01:23;;;;;;;51.00;28.30;;;;;;;6.06;100.00;98714.07;106306;1266;98004;-81
2024/02/11 05:04:10;;;;;;;54.30;29.40;;;;;;;6.06;100.00;98710.31;106248;1262;98067;-82
2024/02/11 05:06:56;;;;;;;52.80;29.10;;;;;;;6.07;100.00;98708.60;106450;1265;98503;-82
2024/02/11 05:09:45;;;;;;;48.70;27.80;;;;;;;6.08;100.00;98704.39;105983;1262;101422;-82
2024/02/11 05:12:31;;;;;;;78.60;40.40;;;;;;;6.10;100.00;98702.05;105799;1263;99175;-81
2024/02/11 05:15:20;;;;;;;64.50;34.90;;;;;;;6.08;100.00;98703.35;105706;1262;97983;-82
2024/02/11 05:18:18;;;;;;;51.00;29.40;;;;;;;6.08;100.00;98704.45;105653;1268;98095;-82
2024/02/11 05:21:04;;;;;;;52.10;28.90;;;;;;;6.08;100.00;98703.55;105933;1270;97948;-83
2024/02/11 05:23:51;;;;;;;55.30;29.70;;;;;;;6.08;100.00;98701.51;105805;1262;101319;-82
2024/02/11 05:26:37;;;;;;;49.80;28.80;;;;;;;6.08;100.00;98701.19;105898;1264;100496;-81
2024/02/11 05:29:23;;;;;;;54.40;29.60;;;;;;;6.09;100.00;98703.23;105842;1262;99966;-81
2024/02/11 05:32:11;;;;;;;51.70;28.10;;;;;;;6.09;100.00;98698.25;105877;1268;98138;-82
2024/02/11 05:34:58;;;;;;;55.10;28.70;;;;;;;6.09;100.00;98697.59;106156;1266;98465;-82
2024/02/11 05:37:44;;;;;;;54.00;30.30;;;;;;;6.07;100.00;98697.63;106007;1262;101281;-83
2024/02/11 05:40:32;;;;;;;51.00;27.40;;;;;;;6.05;100.00;98697.67;105744;1267;99321;-82
2024/02/11 05:43:19;;;;;;;47.70;29.20;;;;;;;6.05;100.00;98698.45;105899;1262;97990;-84
2024/02/11 05:46:07;;;;;;;50.10;28.70;;;;;;;6.07;100.00;98701.23;106046;1262;97978;-84
2024/02/11 05:48:53;;;;;;;48.00;28.40;;;;;;;6.08;100.00;98704.25;105718;1261;98399;-82
2024/02/11 05:51:38;;;;;;;47.00;27.80;;;;;;;6.08;100.00;98705.64;105573;1262;103194;-82
2024/02/11 05:54:27;;;;;;;53.60;32.50;;;;;;;6.08;100.00;98708.27;105469;1262;100341;-82
2024/02/11 05:57:13;;;;;;;50.10;28.40;;;;;;;6.07;100.00;98707.85;105765;1262;97975;-81
2024/02/11 05:59:59;;;;;;;47.40;27.90;;;;;;;6.08;100.00;98709.90;105695;1262;97980;-83
2024/02/11 06:02:47;;;;;;;48.80;29.70;;;;;;;6.07;100.00;98707.69;105636;1262;98054;-81
2024/02/11 06:05:33;;;;;;;45.20;28.00;;;;;;;6.08;100.00;98709.73;105692;1262;102859;-82
2024/02/11 06:08:20;;;;;;;48.40;28.70;;;;;;;6.09;100.00;98712.27;105495;1262;100061;-81
2024/02/11 06:11:06;;;;;;;47.40;27.80;;;;;;;6.09;100.00;98712.77;105450;1262;99862;-82
2024/02/11 06:13:52;;;;;;;43.20;28.20;;;;;;;6.09;100.00;98716.48;105942;1262;99650;-81
2024/02/11 06:16:37;;;;;;;48.40;29.00;;;;;;;6.09;100.00;98714.15;105660;1266;97975;-81
2024/02/11 06:19:22;;;;;;;42.40;27.20;;;;;;;6.09;100.00;98715.26;105717;1262;102640;-81
2024/02/11 06:22:08;;;;;;;46.10;28.70;;;;;;;6.10;100.00;98712.89;105926;1262;99103;-81
2024/02/11 06:24:56;;;;;;;50.10;31.30;;;;;;;6.09;100.00;98714.70;105779;1265;99272;-82
2024/02/11 06:27:42;;;;;;;47.80;29.50;;;;;;;6.09;100.00;98713.26;105815;1262;97968;-82
2024/02/11 06:30:29;;;;;;;41.80;26.90;;;;;;;6.10;100.00;98712.67;105901;1262;98092;-82
2024/02/11 06:33:15;;;;;;;42.90;26.80;;;;;;;6.09;100.00;98716.89;105707;1264;102710;-83
2024/02/11 06:36:00;;;;;;;41.90;26.30;;;;;;;6.09;100.00;98720.56;105546;1262;100225;-81
2024/02/11 06:38:47;;;;;;;38.60;26.00;;;;;;;6.09;100.00;98717.30;105488;1262;98705;-83
2024/02/11 06:41:32;;;;;;;38.80;25.40;;;;;;;6.10;100.00;98716.69;105605;1262;97900;-82
2024/02/11 06:44:22;;;;;;;37.90;24.20;;;;;;;6.09;100.00;98715.54;105924;1262;98506;-80
2024/02/11 06:47:11;;;;;;;38.70;26.50;;;;;;;6.09;100.00;98713.95;105567;1262;102745;-79
2024/02/11 06:49:58;;;;;;;40.20;25.80;;;;;;;6.11;100.00;98713.91;105537;1262;100444;-78
2024/02/11 06:52:46;;;;;;;38.50;24.70;;;;;;;6.13;100.00;98713.63;106166;1262;97984;-79
2024/02/11 06:55:31;;;;;;;39.50;24.80;;;;;;;6.15;100.00;98709.69;105592;1264;98086;-79
2024/02/11 06:58:17;;;;;;;33.10;22.50;;;;;;;6.14;100.00;98707.52;105620;1262;98886;-79
2024/02/11 07:01:02;;;;;;;40.10;25.20;;;;;;;6.14;100.00;98706.46;105621;1262;102096;-79
2024/02/11 07:03:51;;;;;;;35.60;23.50;;;;;;;6.14;100.00;98705.32;105418;1267;99192;-78
2024/02/11 07:06:47;;;;;;;39.90;25.70;;;;;;;6.15;100.00;98706.42;105638;1267;98335;-78
2024/02/11 07:09:33;;;;;;;37.90;24.40;;;;;;;6.17;100.00;98705.81;107060;1262;97965;-78
2024/02/11 07:12:19;;;;;;;38.80;25.20;;;;;;;6.19;100.00;98705.33;105526;1265;97772;-79
2024/02/11 07:15:05;;;;;;;39.10;25.10;;;;;;;6.21;100.00;98705.56;105682;1262;101415;-80
2024/02/11 07:17:52;;;;;;;39.90;23.10;;;;;;;6.22;100.00;98703.52;105956;1261;99139;-80
2024/02/11 07:20:39;;;;;;;44.10;28.60;;;;;;;6.23;100.00;98700.17;105803;1264;98875;-80
2024/02/11 07:23:24;;;;;;;40.30;25.10;;;;;;;6.26;100.00;98698.16;105889;1267;97975;-80
2024/02/11 07:26:12;;;;;;;41.30;25.00;;;;;;;6.27;100.00;98699.55;105699;1267;96665;-80
2024/02/11 07:28:59;;;;;;;37.90;23.80;;;;;;;6.30;100.00;98698.86;106351;1262;101378;-82
2024/02/11 07:31:45;;;;;;;35.70;22.40;;;;;;;6.30;100.00;98694.58;106072;1264;99150;-80
2024/02/11 07:34:31;;;;;;;34.60;22.40;;;;;;;6.30;100.00;98691.05;106496;1267;98327;-80
2024/02/11 07:37:18;;;;;;;38.90;23.10;;;;;;;6.31;100.00;98689.53;106169;1262;97854;-79
2024/02/11 07:40:09;;;;;;;37.90;23.50;;;;;;;6.30;100.00;98689.61;106097;1262;98576;-87
2024/02/11 07:42:54;;;;;;;35.10;23.90;;;;;;;6.29;100.00;98688.52;105703;1269;102731;-85
2024/02/11 07:45:42;;;;;;;38.30;24.20;;;;;;;6.30;100.00;98686.42;105619;1262;99192;-81
2024/02/11 07:48:30;;;;;;;36.90;23.90;;;;;;;6.31;100.00;98684.70;106147;1266;99085;-82
2024/02/11 07:51:18;;;;;;;40.50;23.90;;;;;;;6.31;100.00;98684.30;105888;1262;97988;-80
2024/02/11 07:54:03;;;;;;;39.90;25.40;;;;;;;6.31;100.00;98683.08;105865;1262;98085;-81
2024/02/11 07:56:50;;;;;;;38.80;25.60;;;;;;;6.31;100.00;98687.45;106216;1262;101413;-85
2024/02/11 07:59:39;;;;;;;45.70;29.10;;;;;;;6.31;100.00;98687.48;105639;1262;99111;-85
2024/02/11 08:02:25;;;;;;;39.80;25.30;;;;;;;6.31;100.00;98684.45;105839;1269;97961;-86
2024/02/11 08:05:11;;;;;;;43.80;26.40;;;;;;;6.33;100.00;98687.60;105761;1262;97895;-84
2024/02/11 08:07:57;;;;;;;41.50;24.00;;;;;;;6.35;100.00;98684.66;105994;1262;99629;-82
2024/02/11 08:10:43;;;;;;;41.50;26.30;;;;;;;6.36;100.00;98685.07;105712;1262;101421;-82
2024/02/11 08:13:28;;;;;;;46.10;32.20;;;;;;;6.37;100.00;98684.86;105792;1266;99353;-84
2024/02/11 08:16:15;;;;;;;38.70;25.20;;;;;;;6.39;100.00;98685.02;105796;1267;98052;-83
2024/02/11 08:19:03;;;;;;;43.50;26.90;;;;;;;6.40;100.00;98682.33;105822;1265;97967;-82
2024/02/11 08:21:50;;;;;;;39.30;25.40;;;;;;;6.43;100.00;98680.36;105728;1262;99592;-84
2024/02/11 08:24:35;;;;;;;40.60;24.60;;;;;;;6.44;100.00;98681.29;105728;1262;102055;-85
2024/02/11 08:27:21;;;;;;;39.30;25.80;;;;;;;6.47;100.00;98681.98;105460;1262;99207;-83
2024/02/11 08:30:09;;;;;;;39.40;24.80;;;;;;;6.51;100.00;98677.52;105852;1262;98051;-88
2024/02/11 08:32:57;;;;;;;40.30;24.20;;;;;;;6.52;100.00;98676.77;105952;1262;97790;-87
2024/02/11 08:35:46;;;;;;;37.70;24.80;;;;;;;6.55;100.00;98678.57;105556;1267;98520;-85
2024/02/11 08:38:31;;;;;;;41.30;24.60;;;;;;;6.57;100.00;98677.89;105840;1262;101424;-84
2024/02/11 08:41:19;;;;;;;39.20;24.00;;;;;;;6.57;100.00;98677.46;105585;1262;100428;-84
2024/02/11 08:44:06;;;;;;;40.10;25.40;;;;;;;6.59;100.00;98680.29;105502;1262;98707;-83
2024/02/11 08:46:52;;;;;;;36.20;24.20;;;;;;;6.60;100.00;98679.63;105637;1262;97985;-84
2024/02/11 08:49:39;;;;;;;41.80;25.70;;;;;;;6.62;100.00;98677.41;105669;1262;99888;-84
2024/02/11 08:52:25;;;;;;;38.30;24.50;;;;;;;6.65;100.00;98681.78;105615;1262;101477;-82
2024/02/11 08:55:13;;;;;;;38.90;24.30;;;;;;;6.67;100.00;98677.77;105643;1267;99837;-78
2024/02/11 08:57:59;;;;;;;37.00;23.80;;;;;;;6.69;100.00;98677.89;105484;1262;97956;-78
2024/02/11 09:00:45;;;;;;;35.50;24.10;;;;;;;6.69;100.00;98681.16;105443;1267;97972;-77
2024/02/11 09:03:31;;;;;;;35.90;23.20;;;;;;;6.71;100.00;98677.40;105572;1262;97877;-78
2024/02/11 09:06:17;;;;;;;35.30;23.60;;;;;;;6.72;100.00;98671.17;105905;1262;102264;-78
2024/02/11 09:09:05;;;;;;;38.50;23.80;;;;;;;6.73;100.00;98670.73;105849;1262;100492;-78
2024/02/11 09:11:53;;;;;;;40.50;24.60;;;;;;;6.72;100.00;98670.63;105775;1267;97988;-78
2024/02/11 09:14:39;;;;;;;40.10;24.50;;;;;;;6.73;100.00;98670.67;106030;1262;99231;-81
2024/02/11 09:17:27;;;;;;;36.20;23.40;;;;;;;6.74;100.00;98671.45;105978;1267;98740;-85
2024/02/11 09:20:14;;;;;;;36.40;23.90;;;;;;;6.75;100.00;98669.36;105561;1262;102522;-86
2024/02/11 09:23:00;;;;;;;36.80;23.40;;;;;;;6.77;100.00;98668.85;105764;1267;100386;-86
2024/02/11 09:25:46;;;;;;;37.80;24.80;;;;;;;6.80;100.00;98666.45;105690;1262;97775;-85
2024/02/11 09:28:32;;;;;;;49.40;31.70;;;;;;;6.84;100.00;98665.48;105694;1269;98082;-87
2024/02/11 09:31:18;;;;;;;38.40;25.30;;;;;;;6.87;100.00;98666.21;106409;1265;98403;-87
2024/02/11 09:34:05;;;;;;;33.50;23.50;;;;;;;6.90;100.00;98662.31;106243;1267;101487;-87
2024/02/11 09:37:12;;;;;;;41.50;27.20;;;;;;;6.92;100.00;98666.60;106283;1268;101618;-90
2024/02/11 09:39:58;;;;;;;38.10;24.30;;;;;;;6.96;100.00;98662.09;105776;1267;97964;-84
2024/02/11 09:42:46;;;;;;;44.50;25.70;;;;;;;6.97;100.00;98660.02;106517;1262;97972;-88
2024/02/11 09:45:35;;;;;;;41.40;25.50;;;;;;;7.00;100.00;98658.23;106475;1262;98408;-88
2024/02/11 09:48:23;;;;;;;38.60;23.50;;;;;;;7.05;100.00;98651.98;105720;1262;101948;-85
2024/02/11 09:51:12;;;;;;;38.90;26.40;;;;;;;7.09;100.00;98648.73;105683;1262;101055;-85
2024/02/11 09:54:05;;;;;;;41.90;25.10;;;;;;;7.13;100.00;98647.27;105740;1262;98106;-85
2024/02/11 09:56:51;;;;;;;37.30;22.60;;;;;;;7.18;100.00;98640.12;105814;1262;97873;-86
2024/02/11 09:59:36;;;;;;;41.50;28.10;;;;;;;7.25;100.00;98639.31;106063;1262;98471;-86
2024/02/11 10:02:24;;;;;;;39.90;25.50;;;;;;;7.34;100.00;98639.66;105647;1282;101519;-85
2024/02/11 10:05:11;;;;;;;53.40;33.20;;;;;;;7.42;100.00;98640.36;105780;1262;99246;-87
2024/02/11 10:07:59;;;;;;;46.00;29.80;;;;;;;7.49;100.00;98638.42;105854;1262;98701;-84
2024/02/11 10:10:47;;;;;;;118.00;54.50;;;;;;;7.56;100.00;98639.28;105569;1268;98007;-85
2024/02/11 10:13:35;;;;;;;79.20;44.80;;;;;;;7.64;100.00;98636.23;105778;1267;98457;-85
2024/02/11 10:16:22;;;;;;;49.00;30.70;;;;;;;7.70;100.00;98633.20;105890;1262;101435;-85
2024/02/11 10:19:09;;;;;;;65.90;41.40;;;;;;;7.76;100.00;98631.19;105808;1262;99205;-86
2024/02/11 10:21:55;;;;;;;46.80;30.70;;;;;;;7.81;100.00;98629.64;105626;1262;98112;-86
2024/02/11 10:24:40;;;;;;;42.20;28.10;;;;;;;7.84;100.00;98626.02;105661;1262;97947;-85
2024/02/11 10:27:26;;;;;;;42.80;27.70;;;;;;;7.85;100.00;98621.45;105911;1262;98420;-85
2024/02/11 10:30:13;;;;;;;39.30;25.80;;;;;;;7.85;100.00;98624.98;105904;1264;101433;-88
2024/02/11 10:32:59;;;;;;;38.00;26.00;;;;;;;7.85;100.00;98620.83;105885;1262;99276;-85
2024/02/11 10:35:45;;;;;;;41.30;27.00;;;;;;;7.86;100.00;98619.84;105746;1262;98036;-87
2024/02/11 10:38:31;;;;;;;49.00;29.90;;;;;;;7.88;100.00;98617.29;105595;1269;98009;-84
2024/02/11 10:41:18;;;;;;;42.10;28.10;;;;;;;7.89;100.00;98614.64;105841;1262;97942;-88
2024/02/11 10:44:06;;;;;;;43.20;28.30;;;;;;;7.89;100.00;98611.58;105787;1266;103715;-85
2024/02/11 10:46:55;;;;;;;42.30;27.00;;;;;;;7.90;100.00;98611.60;105750;1262;100185;-87
2024/02/11 10:49:41;;;;;;;38.40;24.90;;;;;;;7.91;100.00;98607.77;105772;1262;101540;-87
2024/02/11 10:52:36;;;;;;;66.80;42.10;;;;;;;7.92;100.00;98598.34;105847;1269;98070;-85
2024/02/11 10:55:26;;;;;;;38.60;26.40;;;;;;;7.94;100.00;98594.14;105797;1262;98065;-86
2024/02/11 10:58:16;;;;;;;37.30;25.50;;;;;;;7.96;100.00;98592.07;105873;1267;102576;-85
2024/02/11 11:01:05;;;;;;;43.30;26.40;;;;;;;7.98;100.00;98586.44;105656;1262;99151;-88
2024/02/11 11:03:52;;;;;;;34.80;24.80;;;;;;;7.99;100.00;98584.23;106186;1265;97984;-79
2024/02/11 11:06:39;;;;;;;39.00;24.70;;;;;;;8.00;100.00;98584.25;106198;1264;98004;-79
2024/02/11 11:09:25;;;;;;;40.70;25.80;;;;;;;8.01;100.00;98581.54;105969;1262;96390;-79
2024/02/11 11:12:15;;;;;;;40.40;25.30;;;;;;;8.04;100.00;98579.95;105780;1262;102057;-78
2024/02/11 11:15:11;;;;;;;37.00;24.20;;;;;;;8.06;100.00;98577.29;105690;1262;99080;-78
2024/02/11 11:17:59;;;;;;;38.40;26.00;;;;;;;8.07;100.00;98571.30;106099;1262;97909;-88
2024/02/11 11:20:53;;;;;;;38.60;25.00;;;;;;;8.08;100.00;98570.02;105741;1267;97965;-85
2024/02/11 11:23:41;;;;;;;44.00;26.80;;;;;;;8.10;100.00;98567.05;105762;1267;98426;-78
2024/02/11 11:26:30;;;;;;;47.30;27.70;;;;;;;8.13;100.00;98566.59;106051;1262;102963;-82
2024/02/11 11:29:16;;;;;;;57.30;35.30;;;;;;;8.16;100.00;98566.62;106153;1267;100354;-81
2024/02/11 11:32:09;;;;;;;43.70;29.20;;;;;;;8.19;100.00;98568.27;106240;1262;97886;-82
2024/02/11 11:34:54;;;;;;;44.60;28.50;;;;;;;8.23;100.00;98566.25;106284;1262;97889;-87
2024/02/11 11:37:40;;;;;;;46.90;27.60;;;;;;;8.27;100.00;98569.23;105650;1262;96583;-88
2024/02/11 11:40:32;;;;;;;43.20;28.70;;;;;;;8.32;100.00;98574.81;105941;1269;102780;-90
2024/02/11 11:43:21;;;;;;;41.80;26.90;;;;;;;8.36;100.00;98573.65;106194;1262;101281;-88
2024/02/11 11:46:06;;;;;;;39.50;26.00;;;;;;;8.40;100.00;98572.13;106202;1267;99057;-87
2024/02/11 11:48:56;;;;;;;38.60;26.90;;;;;;;8.44;100.00;98564.83;106190;1270;97601;-88
2024/02/11 11:51:43;;;;;;;41.90;28.30;;;;;;;8.48;100.00;98562.91;105905;1262;97858;-87
2024/02/11 11:54:29;;;;;;;65.50;38.40;;;;;;;8.53;100.00;98562.39;106009;1268;102727;-85
2024/02/11 11:57:16;;;;;;;43.30;29.50;;;;;;;8.58;100.00;98563.80;106048;1267;101086;-87
2024/02/11 12:00:03;;;;;;;51.70;31.80;;;;;;;8.63;100.00;98563.13;105898;1262;97984;-87
2024/02/11 12:02:58;;;;;;;47.20;30.00;;;;;;;8.66;100.00;98556.59;105708;1267;97988;-87
2024/02/11 12:05:44;;;;;;;37.40;26.00;;;;;;;8.69;100.00;98551.89;105669;1267;98417;-86
2024/02/11 12:08:31;;;;;;;47.70;30.40;;;;;;;8.73;100.00;98546.39;105892;1262;101452;-86
2024/02/11 12:11:17;;;;;;;44.40;31.40;;;;;;;8.76;100.00;98545.26;105631;1262;101985;-86
2024/02/11 12:14:04;;;;;;;46.20;31.80;;;;;;;8.80;100.00;98545.91;105904;1262;98583;-86
2024/02/11 12:16:50;;;;;;;72.20;40.90;;;;;;;8.84;100.00;98542.50;105713;1267;97888;-87
2024/02/11 12:19:48;;;;;;;48.80;29.30;;;;;;;8.88;100.00;98541.30;105544;1262;98377;-83
2024/02/11 12:22:34;;;;;;;50.80;32.50;;;;;;;8.91;100.00;98537.02;105776;1262;102626;-84
2024/02/11 12:25:22;;;;;;;42.40;29.10;;;;;;;8.95;100.00;98534.57;106002;1266;99158;-85
2024/02/11 12:28:09;;;;;;;54.50;34.50;;;;;;;9.00;100.00;98531.23;105675;1262;97984;-84
2024/02/11 12:31:14;;;;;;;58.30;37.20;;;;;;;9.03;100.00;98528.55;105775;1267;97975;-84
2024/02/11 12:34:01;;;;;;;52.80;32.00;;;;;;;9.07;100.00;98525.39;105828;1267;98060;-83
2024/02/11 12:36:47;;;;;;;55.60;33.80;;;;;;;9.12;100.00;98528.36;105628;1262;101502;-87
2024/02/11 12:39:33;;;;;;;47.70;30.10;;;;;;;9.17;100.00;98525.10;105737;1269;99002;-87